sensor_id;sensor_type;location;lat;lon;timestamp;temperature;humidity
7218;DHT22;3650;53.580;10.094;2024-03-02T00:00:52;11.60;85.10
7218;DHT22;3650;53.580;10.094;2024-03-02T00:03:20;11.60;84.90
7218;DHT22;3650;53.580;10.094;2024-03-02T00:05:50;11.60;84.80
7218;DHT22;3650;53.580;10.094;2024-03-02T00:08:23;11.60;85.00
7218;DHT22;3650;53.580;10.094;2024-03-02T00:10:52;11.60;85.30
7218;DHT22;3650;53.580;10.094;2024-03-02T00:13:23;11.60;85.70
7218;DHT22;3650;53.580;10.094;2024-03-02T00:15:54;11.60;85.30
7218;DHT22;3650;53.580;10.094;2024-03-02T00:18:25;11.60;85.70
7218;DHT22;3650;53.580;10.094;2024-03-02T00:20:54;11.60;85.70
7218;DHT22;3650;53.580;10.094;2024-03-02T00:23:24;11.60;85.70
7218;DHT22;3650;53.580;10.094;2024-03-02T00:25:52;11.60;85.70
7218;DHT22;3650;53.580;10.094;2024-03-02T00:28:21;11.60;85.70
7218;DHT22;3650;53.580;10.094;2024-03-02T00:30:55;11.60;85.80
7218;DHT22;3650;53.580;10.094;2024-03-02T00:33:25;11.60;86.50
7218;DHT22;3650;53.580;10.094;2024-03-02T00:35:53;11.60;87.20
7218;DHT22;3650;53.580;10.094;2024-03-02T00:38:20;11.60;87.20
7218;DHT22;3650;53.580;10.094;2024-03-02T00:40:48;11.50;87.00
7218;DHT22;3650;53.580;10.094;2024-03-02T00:43:41;11.50;87.10
7218;DHT22;3650;53.580;10.094;2024-03-02T00:46:15;11.60;87.40
7218;DHT22;3650;53.580;10.094;2024-03-02T00:48:54;11.60;87.40
7218;DHT22;3650;53.580;10.094;2024-03-02T00:51:22;11.60;88.70
7218;DHT22;3650;53.580;10.094;2024-03-02T00:53:50;11.60;87.50
7218;DHT22;3650;53.580;10.094;2024-03-02T00:56:18;11.60;87.50
7218;DHT22;3650;53.580;10.094;2024-03-02T00:58:46;11.60;87.50
7218;DHT22;3650;53.580;10.094;2024-03-02T01:01:14;11.50;87.70
7218;DHT22;3650;53.580;10.094;2024-03-02T01:03:42;11.50;88.00
7218;DHT22;3650;53.580;10.094;2024-03-02T01:06:09;11.50;88.00
7218;DHT22;3650;53.580;10.094;2024-03-02T01:08:36;11.50;88.00
7218;DHT22;3650;53.580;10.094;2024-03-02T01:11:04;11.50;88.20
7218;DHT22;3650;53.580;10.094;2024-03-02T01:13:31;11.50;88.40
7218;DHT22;3650;53.580;10.094;2024-03-02T01:15:58;11.40;88.60
7218;DHT22;3650;53.580;10.094;2024-03-02T01:18:27;11.40;89.10
7218;DHT22;3650;53.580;10.094;2024-03-02T01:20:54;11.40;89.20
7218;DHT22;3650;53.580;10.094;2024-03-02T01:23:22;11.40;89.20
7218;DHT22;3650;53.580;10.094;2024-03-02T01:25:49;11.40;89.20
7218;DHT22;3650;53.580;10.094;2024-03-02T01:28:16;11.40;89.30
7218;DHT22;3650;53.580;10.094;2024-03-02T01:30:43;11.40;89.30
7218;DHT22;3650;53.580;10.094;2024-03-02T01:33:09;11.40;89.50
7218;DHT22;3650;53.580;10.094;2024-03-02T01:35:37;11.40;89.70
7218;DHT22;3650;53.580;10.094;2024-03-02T01:38:04;11.40;89.80
7218;DHT22;3650;53.580;10.094;2024-03-02T01:40:33;11.40;90.00
7218;DHT22;3650;53.580;10.094;2024-03-02T01:43:00;11.40;89.90
7218;DHT22;3650;53.580;10.094;2024-03-02T01:45:28;11.40;90.00
7218;DHT22;3650;53.580;10.094;2024-03-02T01:47:54;11.40;90.00
7218;DHT22;3650;53.580;10.094;2024-03-02T01:50:26;11.40;90.00
7218;DHT22;3650;53.580;10.094;2024-03-02T01:52:55;11.40;90.10
7218;DHT22;3650;53.580;10.094;2024-03-02T01:55:22;11.40;90.10
7218;DHT22;3650;53.580;10.094;2024-03-02T01:57:50;11.40;90.00
7218;DHT22;3650;53.580;10.094;2024-03-02T02:00:18;11.30;90.00
7218;DHT22;3650;53.580;10.094;2024-03-02T02:02:45;11.30;90.10
7218;DHT22;3650;53.580;10.094;2024-03-02T02:05:12;11.30;90.20
7218;DHT22;3650;53.580;10.094;2024-03-02T02:07:40;11.30;90.30
7218;DHT22;3650;53.580;10.094;2024-03-02T02:10:09;11.30;90.30
7218;DHT22;3650;53.580;10.094;2024-03-02T02:12:36;11.30;90.80
7218;DHT22;3650;53.580;10.094;2024-03-02T02:15:04;11.30;90.50
7218;DHT22;3650;53.580;10.094;2024-03-02T02:17:31;11.20;90.60
7218;DHT22;3650;53.580;10.094;2024-03-02T02:19:57;11.30;90.70
7218;DHT22;3650;53.580;10.094;2024-03-02T02:22:26;11.20;90.80
7218;DHT22;3650;53.580;10.094;2024-03-02T02:24:52;11.30;90.90
7218;DHT22;3650;53.580;10.094;2024-03-02T02:27:20;11.20;91.00
7218;DHT22;3650;53.580;10.094;2024-03-02T02:29:46;11.20;91.20
7218;DHT22;3650;53.580;10.094;2024-03-02T02:32:13;11.20;91.30
7218;DHT22;3650;53.580;10.094;2024-03-02T02:34:40;11.20;91.40
7218;DHT22;3650;53.580;10.094;2024-03-02T02:37:07;11.20;91.60
7218;DHT22;3650;53.580;10.094;2024-03-02T02:39:35;11.20;91.80
7218;DHT22;3650;53.580;10.094;2024-03-02T02:42:01;11.20;91.90
7218;DHT22;3650;53.580;10.094;2024-03-02T02:44:28;11.20;91.90
7218;DHT22;3650;53.580;10.094;2024-03-02T02:46:55;11.20;91.90
7218;DHT22;3650;53.580;10.094;2024-03-02T02:49:22;11.20;91.90
7218;DHT22;3650;53.580;10.094;2024-03-02T02:51:49;11.20;91.90
7218;DHT22;3650;53.580;10.094;2024-03-02T02:54:16;11.20;92.00
7218;DHT22;3650;53.580;10.094;2024-03-02T02:56:44;11.20;92.20
7218;DHT22;3650;53.580;10.094;2024-03-02T02:59:11;11.20;92.30
7218;DHT22;3650;53.580;10.094;2024-03-02T03:01:37;11.20;92.40
7218;DHT22;3650;53.580;10.094;2024-03-02T03:04:04;11.10;92.40
7218;DHT22;3650;53.580;10.094;2024-03-02T03:06:31;11.10;92.60
7218;DHT22;3650;53.580;10.094;2024-03-02T03:08:58;11.10;92.60
7218;DHT22;3650;53.580;10.094;2024-03-02T03:11:24;11.10;92.80
7218;DHT22;3650;53.580;10.094;2024-03-02T03:13:53;11.10;92.80
7218;DHT22;3650;53.580;10.094;2024-03-02T03:16:20;11.10;92.80
7218;DHT22;3650;53.580;10.094;2024-03-02T03:18:47;11.10;92.80
7218;DHT22;3650;53.580;10.094;2024-03-02T03:21:15;11.10;93.00
7218;DHT22;3650;53.580;10.094;2024-03-02T03:23:42;11.10;92.90
7218;DHT22;3650;53.580;10.094;2024-03-02T03:26:09;11.10;92.80
7218;DHT22;3650;53.580;10.094;2024-03-02T03:28:36;11.10;92.80
7218;DHT22;3650;53.580;10.094;2024-03-02T03:31:04;11.10;93.20
7218;DHT22;3650;53.580;10.094;2024-03-02T03:33:31;11.10;92.80
7218;DHT22;3650;53.580;10.094;2024-03-02T03:35:58;11.10;92.90
7218;DHT22;3650;53.580;10.094;2024-03-02T03:38:25;11.00;92.80
7218;DHT22;3650;53.580;10.094;2024-03-02T03:40:52;11.10;92.80
7218;DHT22;3650;53.580;10.094;2024-03-02T03:43:18;11.00;92.80
7218;DHT22;3650;53.580;10.094;2024-03-02T03:45:45;11.00;92.80
7218;DHT22;3650;53.580;10.094;2024-03-02T03:48:13;11.10;93.00
7218;DHT22;3650;53.580;10.094;2024-03-02T03:50:40;11.00;92.60
7218;DHT22;3650;53.580;10.094;2024-03-02T03:53:07;11.00;92.60
7218;DHT22;3650;53.580;10.094;2024-03-02T03:55:34;11.00;92.70
7218;DHT22;3650;53.580;10.094;2024-03-02T03:58:01;11.00;92.70
7218;DHT22;3650;53.580;10.094;2024-03-02T04:00:27;11.00;92.70
7218;DHT22;3650;53.580;10.094;2024-03-02T04:02:54;11.00;92.70
7218;DHT22;3650;53.580;10.094;2024-03-02T04:05:23;11.00;92.70
7218;DHT22;3650;53.580;10.094;2024-03-02T04:07:50;11.00;92.60
7218;DHT22;3650;53.580;10.094;2024-03-02T04:10:16;11.00;92.60
7218;DHT22;3650;53.580;10.094;2024-03-02T04:12:43;11.00;92.50
7218;DHT22;3650;53.580;10.094;2024-03-02T04:15:10;11.00;92.50
7218;DHT22;3650;53.580;10.094;2024-03-02T04:17:37;11.00;92.70
7218;DHT22;3650;53.580;10.094;2024-03-02T04:20:04;11.00;92.40
7218;DHT22;3650;53.580;10.094;2024-03-02T04:22:34;11.00;92.40
7218;DHT22;3650;53.580;10.094;2024-03-02T04:25:01;11.00;92.30
7218;DHT22;3650;53.580;10.094;2024-03-02T04:27:30;11.00;92.20
7218;DHT22;3650;53.580;10.094;2024-03-02T04:29:57;11.00;92.10
7218;DHT22;3650;53.580;10.094;2024-03-02T04:32:25;10.90;92.00
7218;DHT22;3650;53.580;10.094;2024-03-02T04:34:52;11.00;92.00
7218;DHT22;3650;53.580;10.094;2024-03-02T04:37:19;11.00;92.00
7218;DHT22;3650;53.580;10.094;2024-03-02T04:39:47;11.00;91.90
7218;DHT22;3650;53.580;10.094;2024-03-02T04:42:14;11.00;91.90
7218;DHT22;3650;53.580;10.094;2024-03-02T04:44:41;10.90;91.90
7218;DHT22;3650;53.580;10.094;2024-03-02T04:47:07;11.00;91.90
7218;DHT22;3650;53.580;10.094;2024-03-02T04:49:34;11.00;91.90
7218;DHT22;3650;53.580;10.094;2024-03-02T04:52:01;11.00;91.90
7218;DHT22;3650;53.580;10.094;2024-03-02T04:54:28;11.00;91.80
7218;DHT22;3650;53.580;10.094;2024-03-02T04:56:56;11.00;91.90
7218;DHT22;3650;53.580;10.094;2024-03-02T04:59:23;11.00;91.80
7218;DHT22;3650;53.580;10.094;2024-03-02T05:01:49;11.00;91.60
7218;DHT22;3650;53.580;10.094;2024-03-02T05:04:16;11.00;91.50
7218;DHT22;3650;53.580;10.094;2024-03-02T05:06:43;11.00;91.40
7218;DHT22;3650;53.580;10.094;2024-03-02T05:09:16;11.00;91.20
7218;DHT22;3650;53.580;10.094;2024-03-02T05:11:42;10.90;91.20
7218;DHT22;3650;53.580;10.094;2024-03-02T05:14:36;10.90;91.30
7218;DHT22;3650;53.580;10.094;2024-03-02T05:17:04;10.90;91.40
7218;DHT22;3650;53.580;10.094;2024-03-02T05:19:31;10.80;91.50
7218;DHT22;3650;53.580;10.094;2024-03-02T05:21:57;10.80;91.50
7218;DHT22;3650;53.580;10.094;2024-03-02T05:24:24;10.80;91.40
7218;DHT22;3650;53.580;10.094;2024-03-02T05:26:53;10.80;91.40
7218;DHT22;3650;53.580;10.094;2024-03-02T05:29:20;10.80;91.40
7218;DHT22;3650;53.580;10.094;2024-03-02T05:31:48;10.80;91.30
7218;DHT22;3650;53.580;10.094;2024-03-02T05:34:15;10.80;91.30
7218;DHT22;3650;53.580;10.094;2024-03-02T05:36:42;10.80;91.10
7218;DHT22;3650;53.580;10.094;2024-03-02T05:39:08;10.90;91.10
7218;DHT22;3650;53.580;10.094;2024-03-02T05:41:36;10.90;90.90
7218;DHT22;3650;53.580;10.094;2024-03-02T05:44:03;10.90;90.90
7218;DHT22;3650;53.580;10.094;2024-03-02T05:46:30;10.90;90.90
7218;DHT22;3650;53.580;10.094;2024-03-02T05:48:59;10.90;90.80
7218;DHT22;3650;53.580;10.094;2024-03-02T05:51:25;10.90;90.70
7218;DHT22;3650;53.580;10.094;2024-03-02T05:53:52;10.90;90.70
7218;DHT22;3650;53.580;10.094;2024-03-02T05:56:19;10.90;90.60
7218;DHT22;3650;53.580;10.094;2024-03-02T05:58:45;10.90;90.50
7218;DHT22;3650;53.580;10.094;2024-03-02T06:01:23;10.90;90.50
7218;DHT22;3650;53.580;10.094;2024-03-02T06:03:54;10.90;90.40
7218;DHT22;3650;53.580;10.094;2024-03-02T06:06:22;10.90;90.40
7218;DHT22;3650;53.580;10.094;2024-03-02T06:08:49;10.90;90.30
7218;DHT22;3650;53.580;10.094;2024-03-02T06:11:15;10.90;90.30
7218;DHT22;3650;53.580;10.094;2024-03-02T06:13:42;10.90;90.60
7218;DHT22;3650;53.580;10.094;2024-03-02T06:16:09;10.90;90.60
7218;DHT22;3650;53.580;10.094;2024-03-02T06:18:36;10.90;90.20
7218;DHT22;3650;53.580;10.094;2024-03-02T06:21:03;10.90;90.20
7218;DHT22;3650;53.580;10.094;2024-03-02T06:23:31;10.90;90.10
7218;DHT22;3650;53.580;10.094;2024-03-02T06:25:58;10.90;90.10
7218;DHT22;3650;53.580;10.094;2024-03-02T06:28:25;10.90;90.00
7218;DHT22;3650;53.580;10.094;2024-03-02T06:30:52;10.90;89.80
7218;DHT22;3650;53.580;10.094;2024-03-02T06:33:19;10.90;89.50
7218;DHT22;3650;53.580;10.094;2024-03-02T06:35:46;10.90;89.50
7218;DHT22;3650;53.580;10.094;2024-03-02T06:38:14;10.90;89.50
7218;DHT22;3650;53.580;10.094;2024-03-02T06:40:42;10.90;89.60
7218;DHT22;3650;53.580;10.094;2024-03-02T06:43:09;10.90;89.60
7218;DHT22;3650;53.580;10.094;2024-03-02T06:45:36;10.90;89.50
7218;DHT22;3650;53.580;10.094;2024-03-02T06:48:03;10.90;89.40
7218;DHT22;3650;53.580;10.094;2024-03-02T06:50:30;10.90;89.40
7218;DHT22;3650;53.580;10.094;2024-03-02T06:52:57;10.90;89.50
7218;DHT22;3650;53.580;10.094;2024-03-02T06:55:24;10.90;89.30
7218;DHT22;3650;53.580;10.094;2024-03-02T06:57:52;10.90;89.20
7218;DHT22;3650;53.580;10.094;2024-03-02T07:00:19;10.90;89.50
7218;DHT22;3650;53.580;10.094;2024-03-02T07:02:46;10.90;89.50
7218;DHT22;3650;53.580;10.094;2024-03-02T07:05:13;10.90;89.40
7218;DHT22;3650;53.580;10.094;2024-03-02T07:07:40;10.90;89.10
7218;DHT22;3650;53.580;10.094;2024-03-02T07:10:08;10.90;89.20
7218;DHT22;3650;53.580;10.094;2024-03-02T07:12:35;10.90;89.50
7218;DHT22;3650;53.580;10.094;2024-03-02T07:15:03;10.90;89.60
7218;DHT22;3650;53.580;10.094;2024-03-02T07:18:08;10.90;89.50
7218;DHT22;3650;53.580;10.094;2024-03-02T07:20:35;10.90;89.30
7218;DHT22;3650;53.580;10.094;2024-03-02T07:23:02;10.90;89.30
7218;DHT22;3650;53.580;10.094;2024-03-02T07:25:29;10.90;89.50
7218;DHT22;3650;53.580;10.094;2024-03-02T07:27:56;10.90;89.40
7218;DHT22;3650;53.580;10.094;2024-03-02T07:30:24;10.90;89.10
7218;DHT22;3650;53.580;10.094;2024-03-02T07:32:51;10.90;89.20
7218;DHT22;3650;53.580;10.094;2024-03-02T07:35:17;10.90;89.30
7218;DHT22;3650;53.580;10.094;2024-03-02T07:37:44;10.90;89.40
7218;DHT22;3650;53.580;10.094;2024-03-02T07:40:15;10.90;89.60
7218;DHT22;3650;53.580;10.094;2024-03-02T07:42:41;10.90;89.50
7218;DHT22;3650;53.580;10.094;2024-03-02T07:45:09;10.90;89.50
7218;DHT22;3650;53.580;10.094;2024-03-02T07:47:37;10.90;89.40
7218;DHT22;3650;53.580;10.094;2024-03-02T07:50:05;10.90;89.30
7218;DHT22;3650;53.580;10.094;2024-03-02T07:52:33;11.00;89.30
7218;DHT22;3650;53.580;10.094;2024-03-02T07:55:00;10.90;89.00
7218;DHT22;3650;53.580;10.094;2024-03-02T07:57:26;11.00;88.90
7218;DHT22;3650;53.580;10.094;2024-03-02T07:59:53;11.00;89.00
7218;DHT22;3650;53.580;10.094;2024-03-02T08:02:20;11.00;88.80
7218;DHT22;3650;53.580;10.094;2024-03-02T08:04:48;11.00;88.80
7218;DHT22;3650;53.580;10.094;2024-03-02T08:07:16;11.00;88.70
7218;DHT22;3650;53.580;10.094;2024-03-02T08:09:43;11.00;88.60
7218;DHT22;3650;53.580;10.094;2024-03-02T08:12:09;11.10;88.60
7218;DHT22;3650;53.580;10.094;2024-03-02T08:14:36;11.10;87.80
7218;DHT22;3650;53.580;10.094;2024-03-02T08:17:03;11.10;87.60
7218;DHT22;3650;53.580;10.094;2024-03-02T08:19:35;11.00;87.40
7218;DHT22;3650;53.580;10.094;2024-03-02T08:22:03;11.10;87.50
7218;DHT22;3650;53.580;10.094;2024-03-02T08:24:30;11.10;87.80
7218;DHT22;3650;53.580;10.094;2024-03-02T08:26:57;11.10;87.60
7218;DHT22;3650;53.580;10.094;2024-03-02T08:29:24;11.10;87.50
7218;DHT22;3650;53.580;10.094;2024-03-02T08:31:51;11.10;87.00
7218;DHT22;3650;53.580;10.094;2024-03-02T08:34:18;11.10;87.10
7218;DHT22;3650;53.580;10.094;2024-03-02T08:36:46;11.20;87.30
7218;DHT22;3650;53.580;10.094;2024-03-02T08:39:14;11.10;86.90
7218;DHT22;3650;53.580;10.094;2024-03-02T08:41:42;11.20;86.70
7218;DHT22;3650;53.580;10.094;2024-03-02T08:44:09;11.20;86.60
7218;DHT22;3650;53.580;10.094;2024-03-02T08:46:36;11.20;86.10
7218;DHT22;3650;53.580;10.094;2024-03-02T08:49:03;11.20;86.30
7218;DHT22;3650;53.580;10.094;2024-03-02T08:51:29;11.20;86.10
7218;DHT22;3650;53.580;10.094;2024-03-02T08:53:57;11.30;86.40
7218;DHT22;3650;53.580;10.094;2024-03-02T08:56:25;11.30;86.50
7218;DHT22;3650;53.580;10.094;2024-03-02T08:58:52;11.30;87.10
7218;DHT22;3650;53.580;10.094;2024-03-02T09:01:19;11.30;87.90
7218;DHT22;3650;53.580;10.094;2024-03-02T09:03:46;11.30;88.30
7218;DHT22;3650;53.580;10.094;2024-03-02T09:06:15;11.30;88.20
7218;DHT22;3650;53.580;10.094;2024-03-02T09:08:43;11.40;88.30
7218;DHT22;3650;53.580;10.094;2024-03-02T09:11:10;11.40;87.70
7218;DHT22;3650;53.580;10.094;2024-03-02T09:13:39;11.40;86.80
7218;DHT22;3650;53.580;10.094;2024-03-02T09:16:06;11.40;86.40
7218;DHT22;3650;53.580;10.094;2024-03-02T09:18:36;11.40;85.90
7218;DHT22;3650;53.580;10.094;2024-03-02T09:21:04;11.50;85.80
7218;DHT22;3650;53.580;10.094;2024-03-02T09:23:31;11.50;86.50
7218;DHT22;3650;53.580;10.094;2024-03-02T09:25:57;11.50;86.40
7218;DHT22;3650;53.580;10.094;2024-03-02T09:28:24;11.50;86.50
7218;DHT22;3650;53.580;10.094;2024-03-02T09:30:52;11.50;86.20
7218;DHT22;3650;53.580;10.094;2024-03-02T09:33:19;11.60;86.30
7218;DHT22;3650;53.580;10.094;2024-03-02T09:35:46;11.60;86.30
7218;DHT22;3650;53.580;10.094;2024-03-02T09:38:14;11.60;85.70
7218;DHT22;3650;53.580;10.094;2024-03-02T09:40:41;11.60;85.70
7218;DHT22;3650;53.580;10.094;2024-03-02T09:43:08;11.70;85.80
7218;DHT22;3650;53.580;10.094;2024-03-02T09:45:35;11.70;85.80
7218;DHT22;3650;53.580;10.094;2024-03-02T09:48:05;11.70;85.20
7218;DHT22;3650;53.580;10.094;2024-03-02T09:50:32;11.70;84.40
7218;DHT22;3650;53.580;10.094;2024-03-02T09:52:59;11.70;85.10
7218;DHT22;3650;53.580;10.094;2024-03-02T09:55:26;11.80;85.90
7218;DHT22;3650;53.580;10.094;2024-03-02T09:57:53;11.80;85.90
7218;DHT22;3650;53.580;10.094;2024-03-02T10:00:20;11.80;84.50
7218;DHT22;3650;53.580;10.094;2024-03-02T10:02:47;11.80;84.20
7218;DHT22;3650;53.580;10.094;2024-03-02T10:05:23;11.90;83.90
7218;DHT22;3650;53.580;10.094;2024-03-02T10:07:59;11.90;83.60
7218;DHT22;3650;53.580;10.094;2024-03-02T10:10:35;11.90;83.70
7218;DHT22;3650;53.580;10.094;2024-03-02T10:13:06;12.00;83.00
7218;DHT22;3650;53.580;10.094;2024-03-02T10:15:33;12.00;83.00
7218;DHT22;3650;53.580;10.094;2024-03-02T10:18:00;12.00;82.60
7218;DHT22;3650;53.580;10.094;2024-03-02T10:20:28;12.00;82.30
7218;DHT22;3650;53.580;10.094;2024-03-02T10:22:55;12.10;82.40
7218;DHT22;3650;53.580;10.094;2024-03-02T10:25:29;12.10;82.10
7218;DHT22;3650;53.580;10.094;2024-03-02T10:27:57;12.10;82.80
7218;DHT22;3650;53.580;10.094;2024-03-02T10:30:25;12.20;81.10
7218;DHT22;3650;53.580;10.094;2024-03-02T10:32:53;12.20;80.70
7218;DHT22;3650;53.580;10.094;2024-03-02T10:35:20;12.20;80.60
7218;DHT22;3650;53.580;10.094;2024-03-02T10:37:49;12.20;80.40
7218;DHT22;3650;53.580;10.094;2024-03-02T10:40:16;12.30;79.90
7218;DHT22;3650;53.580;10.094;2024-03-02T10:42:44;12.30;79.80
7218;DHT22;3650;53.580;10.094;2024-03-02T10:45:12;12.30;79.30
7218;DHT22;3650;53.580;10.094;2024-03-02T10:47:42;12.40;78.90
7218;DHT22;3650;53.580;10.094;2024-03-02T10:50:09;12.40;79.20
7218;DHT22;3650;53.580;10.094;2024-03-02T10:52:36;12.40;78.40
7218;DHT22;3650;53.580;10.094;2024-03-02T10:55:07;12.50;78.10
7218;DHT22;3650;53.580;10.094;2024-03-02T10:57:41;12.50;77.30
7218;DHT22;3650;53.580;10.094;2024-03-02T11:00:12;12.50;76.70
7218;DHT22;3650;53.580;10.094;2024-03-02T11:02:45;12.50;75.60
7218;DHT22;3650;53.580;10.094;2024-03-02T11:05:22;12.60;75.70
7218;DHT22;3650;53.580;10.094;2024-03-02T11:07:51;12.60;75.70
7218;DHT22;3650;53.580;10.094;2024-03-02T11:10:21;12.60;75.70
7218;DHT22;3650;53.580;10.094;2024-03-02T11:12:55;12.70;75.10
7218;DHT22;3650;53.580;10.094;2024-03-02T11:15:24;12.70;74.20
7218;DHT22;3650;53.580;10.094;2024-03-02T11:17:52;12.70;73.70
7218;DHT22;3650;53.580;10.094;2024-03-02T11:20:20;12.80;74.80
7218;DHT22;3650;53.580;10.094;2024-03-02T11:22:48;12.80;74.50
7218;DHT22;3650;53.580;10.094;2024-03-02T11:25:26;12.80;74.20
7218;DHT22;3650;53.580;10.094;2024-03-02T11:28:00;12.80;72.40
7218;DHT22;3650;53.580;10.094;2024-03-02T11:30:49;12.90;71.80
7218;DHT22;3650;53.580;10.094;2024-03-02T11:33:23;12.90;70.70
7218;DHT22;3650;53.580;10.094;2024-03-02T11:35:50;12.90;70.40
7218;DHT22;3650;53.580;10.094;2024-03-02T11:38:18;13.00;70.40
7218;DHT22;3650;53.580;10.094;2024-03-02T11:40:46;12.90;71.40
7218;DHT22;3650;53.580;10.094;2024-03-02T11:43:14;13.00;70.50
7218;DHT22;3650;53.580;10.094;2024-03-02T11:45:42;13.00;70.90
7218;DHT22;3650;53.580;10.094;2024-03-02T11:48:11;13.10;71.20
7218;DHT22;3650;53.580;10.094;2024-03-02T11:50:41;13.10;70.70
7218;DHT22;3650;53.580;10.094;2024-03-02T11:53:10;13.10;69.90
7218;DHT22;3650;53.580;10.094;2024-03-02T11:55:38;13.10;68.70
7218;DHT22;3650;53.580;10.094;2024-03-02T11:58:07;13.20;67.90
7218;DHT22;3650;53.580;10.094;2024-03-02T12:00:34;13.20;67.90
7218;DHT22;3650;53.580;10.094;2024-03-02T12:03:03;13.10;67.00
7218;DHT22;3650;53.580;10.094;2024-03-02T12:05:30;13.20;66.70
7218;DHT22;3650;53.580;10.094;2024-03-02T12:07:58;13.20;66.40
7218;DHT22;3650;53.580;10.094;2024-03-02T12:10:25;13.20;66.00
7218;DHT22;3650;53.580;10.094;2024-03-02T12:12:56;13.30;65.70
7218;DHT22;3650;53.580;10.094;2024-03-02T12:15:26;13.30;64.90
7218;DHT22;3650;53.580;10.094;2024-03-02T12:17:54;13.30;64.60
7218;DHT22;3650;53.580;10.094;2024-03-02T12:20:21;13.30;64.60
7218;DHT22;3650;53.580;10.094;2024-03-02T12:22:50;13.30;64.20
7218;DHT22;3650;53.580;10.094;2024-03-02T12:25:18;13.30;63.70
7218;DHT22;3650;53.580;10.094;2024-03-02T12:27:45;13.30;64.00
7218;DHT22;3650;53.580;10.094;2024-03-02T12:30:12;13.30;64.60
7218;DHT22;3650;53.580;10.094;2024-03-02T12:32:41;13.40;64.70
7218;DHT22;3650;53.580;10.094;2024-03-02T12:35:15;13.40;63.30
7218;DHT22;3650;53.580;10.094;2024-03-02T12:37:43;13.40;62.90
7218;DHT22;3650;53.580;10.094;2024-03-02T12:40:10;13.40;62.60
7218;DHT22;3650;53.580;10.094;2024-03-02T12:42:38;13.40;62.60
7218;DHT22;3650;53.580;10.094;2024-03-02T12:45:05;13.50;62.60
7218;DHT22;3650;53.580;10.094;2024-03-02T12:47:33;13.50;62.60
7218;DHT22;3650;53.580;10.094;2024-03-02T12:50:03;13.50;62.40
7218;DHT22;3650;53.580;10.094;2024-03-02T12:52:30;13.40;62.50
7218;DHT22;3650;53.580;10.094;2024-03-02T12:54:58;13.50;62.60
7218;DHT22;3650;53.580;10.094;2024-03-02T12:57:26;13.50;62.40
7218;DHT22;3650;53.580;10.094;2024-03-02T12:59:57;13.60;61.80
7218;DHT22;3650;53.580;10.094;2024-03-02T13:02:28;13.60;60.10
7218;DHT22;3650;53.580;10.094;2024-03-02T13:04:55;13.60;59.50
7218;DHT22;3650;53.580;10.094;2024-03-02T13:07:24;13.60;59.40
7218;DHT22;3650;53.580;10.094;2024-03-02T13:09:52;13.60;59.00
7218;DHT22;3650;53.580;10.094;2024-03-02T13:12:21;13.60;58.50
7218;DHT22;3650;53.580;10.094;2024-03-02T13:14:48;13.60;57.80
7218;DHT22;3650;53.580;10.094;2024-03-02T13:17:17;13.80;57.80
7218;DHT22;3650;53.580;10.094;2024-03-02T13:19:51;13.60;57.40
7218;DHT22;3650;53.580;10.094;2024-03-02T13:22:19;13.60;57.20
7218;DHT22;3650;53.580;10.094;2024-03-02T13:24:48;13.60;58.70
7218;DHT22;3650;53.580;10.094;2024-03-02T13:27:15;13.70;57.60
7218;DHT22;3650;53.580;10.094;2024-03-02T13:29:45;13.70;57.60
7218;DHT22;3650;53.580;10.094;2024-03-02T13:32:12;13.70;57.20
7218;DHT22;3650;53.580;10.094;2024-03-02T13:34:38;13.70;57.00
7218;DHT22;3650;53.580;10.094;2024-03-02T13:37:05;13.70;56.90
7218;DHT22;3650;53.580;10.094;2024-03-02T13:39:32;13.70;57.00
7218;DHT22;3650;53.580;10.094;2024-03-02T13:42:07;13.70;57.60
7218;DHT22;3650;53.580;10.094;2024-03-02T13:44:34;13.70;57.90
7218;DHT22;3650;53.580;10.094;2024-03-02T13:47:03;13.80;57.50
7218;DHT22;3650;53.580;10.094;2024-03-02T13:49:30;13.80;56.60
7218;DHT22;3650;53.580;10.094;2024-03-02T13:52:06;13.80;56.60
7218;DHT22;3650;53.580;10.094;2024-03-02T13:54:38;13.80;57.10
7218;DHT22;3650;53.580;10.094;2024-03-02T13:57:07;13.80;57.20
7218;DHT22;3650;53.580;10.094;2024-03-02T13:59:34;13.80;57.10
7218;DHT22;3650;53.580;10.094;2024-03-02T14:02:02;13.80;57.30
7218;DHT22;3650;53.580;10.094;2024-03-02T14:04:31;13.80;57.10
7218;DHT22;3650;53.580;10.094;2024-03-02T14:06:58;13.80;57.00
7218;DHT22;3650;53.580;10.094;2024-03-02T14:09:26;13.90;57.00
7218;DHT22;3650;53.580;10.094;2024-03-02T14:11:53;13.90;56.70
7218;DHT22;3650;53.580;10.094;2024-03-02T14:14:21;13.90;56.20
7218;DHT22;3650;53.580;10.094;2024-03-02T14:16:48;13.90;55.60
7218;DHT22;3650;53.580;10.094;2024-03-02T14:19:15;13.90;55.00
7218;DHT22;3650;53.580;10.094;2024-03-02T14:21:42;13.90;54.80
7218;DHT22;3650;53.580;10.094;2024-03-02T14:24:09;13.90;54.60
7218;DHT22;3650;53.580;10.094;2024-03-02T14:26:36;13.90;54.90
7218;DHT22;3650;53.580;10.094;2024-03-02T14:29:03;13.90;54.80
7218;DHT22;3650;53.580;10.094;2024-03-02T14:31:32;14.00;53.90
7218;DHT22;3650;53.580;10.094;2024-03-02T14:33:59;14.00;53.10
7218;DHT22;3650;53.580;10.094;2024-03-02T14:36:26;14.00;53.80
7218;DHT22;3650;53.580;10.094;2024-03-02T14:38:57;14.00;54.30
7218;DHT22;3650;53.580;10.094;2024-03-02T14:41:24;14.00;54.30
7218;DHT22;3650;53.580;10.094;2024-03-02T14:43:51;14.00;53.90
7218;DHT22;3650;53.580;10.094;2024-03-02T14:46:18;14.00;52.90
7218;DHT22;3650;53.580;10.094;2024-03-02T14:48:49;14.00;52.80
7218;DHT22;3650;53.580;10.094;2024-03-02T14:51:16;14.10;52.50
7218;DHT22;3650;53.580;10.094;2024-03-02T14:53:45;14.00;52.40
7218;DHT22;3650;53.580;10.094;2024-03-02T14:56:12;14.00;52.60
7218;DHT22;3650;53.580;10.094;2024-03-02T14:58:39;14.00;52.70
7218;DHT22;3650;53.580;10.094;2024-03-02T15:01:10;14.00;52.50
7218;DHT22;3650;53.580;10.094;2024-03-02T15:03:37;14.00;52.80
7218;DHT22;3650;53.580;10.094;2024-03-02T15:06:06;14.00;52.80
7218;DHT22;3650;53.580;10.094;2024-03-02T15:08:33;14.10;53.00
7218;DHT22;3650;53.580;10.094;2024-03-02T15:11:00;14.10;53.00
7218;DHT22;3650;53.580;10.094;2024-03-02T15:13:31;14.10;53.00
7218;DHT22;3650;53.580;10.094;2024-03-02T15:15:59;14.10;53.00
7218;DHT22;3650;53.580;10.094;2024-03-02T15:18:26;14.10;52.90
7218;DHT22;3650;53.580;10.094;2024-03-02T15:20:53;14.20;52.60
7218;DHT22;3650;53.580;10.094;2024-03-02T15:23:21;14.10;52.80
7218;DHT22;3650;53.580;10.094;2024-03-02T15:25:47;14.10;52.30
7218;DHT22;3650;53.580;10.094;2024-03-02T15:28:14;14.00;52.00
7218;DHT22;3650;53.580;10.094;2024-03-02T15:30:40;14.00;51.40
7218;DHT22;3650;53.580;10.094;2024-03-02T15:33:08;14.20;51.60
7218;DHT22;3650;53.580;10.094;2024-03-02T15:35:34;14.00;51.50
7218;DHT22;3650;53.580;10.094;2024-03-02T15:38:01;14.00;51.50
7218;DHT22;3650;53.580;10.094;2024-03-02T15:40:29;14.00;52.00
7218;DHT22;3650;53.580;10.094;2024-03-02T15:42:56;14.00;52.20
7218;DHT22;3650;53.580;10.094;2024-03-02T15:45:23;14.00;52.00
7218;DHT22;3650;53.580;10.094;2024-03-02T15:47:51;14.00;51.90
7218;DHT22;3650;53.580;10.094;2024-03-02T15:50:18;14.00;51.80